Time;durP1;ratioP1;P1;durP2;ratioP2;P2;SDS_P1;SDS_P2;PMS_P1;PMS_P2;Temp;Humidity;BMP_temperature;BMP_pressure;BME280_temperature;BME280_humidity;BME280_pressure;Samples;Min_cycle;Max_cycle;Signal;HPM_P1;HPM_P2
2023/03/17 00:02:15;;;;;;;;;;;10.90;73.50;;;;;;5075330;28;19928;-67
2023/03/17 00:04:42;;;;;;;;;;;10.90;73.80;;;;;;5070118;28;19928;-66
2023/03/17 00:07:12;;;;;;;;;;;10.80;73.90;;;;;;5071776;28;19925;-68
2023/03/17 00:09:38;;;;;;;;;;;10.80;74.40;;;;;;5070121;28;20387;-67
2023/03/17 00:12:09;;;;;;;;;;;10.80;74.60;;;;;;5070975;28;20434;-67
2023/03/17 00:14:36;;;;;;;;;;;10.70;74.70;;;;;;5069729;28;19929;-68
2023/03/17 00:17:02;;;;;;;;;;;10.70;75.00;;;;;;5076104;28;20027;-68
2023/03/17 00:19:31;;;;;;;;;;;10.60;75.60;;;;;;5068983;28;19931;-68
2023/03/17 00:21:57;;;;;;;;;;;10.60;75.80;;;;;;5074000;28;20302;-68
2023/03/17 00:24:26;;;;;;;;;;;10.50;76.10;;;;;;5069720;28;19924;-67
2023/03/17 00:26:53;;;;;;;;;;;10.50;76.60;;;;;;5067559;28;19956;-68
2023/03/17 00:29:19;;;;;;;;;;;10.80;77.20;;;;;;5069272;28;19932;-68
2023/03/17 00:31:46;;;;;;;;;;;10.40;77.10;;;;;;5071528;28;19925;-68
2023/03/17 00:34:15;;;;;;;;;;;10.30;77.30;;;;;;5070923;28;19939;-68
2023/03/17 00:36:42;;;;;;;;;;;10.40;77.70;;;;;;5070616;28;20384;-67
2023/03/17 00:39:12;;;;;;;;;;;10.40;77.50;;;;;;5069713;28;19999;-66
2023/03/17 00:41:40;;;;;;;;;;;10.40;77.50;;;;;;5070428;28;19925;-68
2023/03/17 00:44:07;;;;;;;;;;;10.50;77.90;;;;;;5070575;28;19924;-67
2023/03/17 00:46:36;;;;;;;;;;;10.50;78.00;;;;;;5072168;28;19931;-67
2023/03/17 00:49:04;;;;;;;;;;;10.50;77.80;;;;;;5074531;28;19928;-67
2023/03/17 00:51:31;;;;;;;;;;;10.50;78.00;;;;;;5069459;28;19943;-69
2023/03/17 00:53:57;;;;;;;;;;;10.50;78.00;;;;;;5070707;28;19978;-68
2023/03/17 00:56:24;;;;;;;;;;;10.50;78.00;;;;;;5075558;28;19930;-67
2023/03/17 00:58:52;;;;;;;;;;;10.50;78.10;;;;;;5067394;28;20012;-67
2023/03/17 01:01:19;;;;;;;;;;;10.50;78.30;;;;;;5069854;28;19933;-68
2023/03/17 01:03:45;;;;;;;;;;;10.40;78.40;;;;;;5069967;28;19933;-67
2023/03/17 01:06:14;;;;;;;;;;;10.40;78.40;;;;;;5069395;28;20299;-67
2023/03/17 01:08:41;;;;;;;;;;;10.40;78.60;;;;;;5069801;28;19929;-67
2023/03/17 01:11:13;;;;;;;;;;;10.40;78.90;;;;;;5067415;28;19943;-68
2023/03/17 01:13:40;;;;;;;;;;;10.40;79.00;;;;;;5070346;28;20005;-68
2023/03/17 01:16:10;;;;;;;;;;;10.40;79.20;;;;;;5069695;28;19967;-68
2023/03/17 01:18:37;;;;;;;;;;;10.40;79.50;;;;;;5069753;28;19924;-67
2023/03/17 01:21:03;;;;;;;;;;;10.30;79.70;;;;;;5067782;28;19928;-67
2023/03/17 01:23:30;;;;;;;;;;;10.30;80.00;;;;;;5068793;28;19929;-68
2023/03/17 01:25:57;;;;;;;;;;;10.20;80.20;;;;;;5069391;28;20020;-67
2023/03/17 01:28:24;;;;;;;;;;;10.30;80.10;;;;;;5068501;28;19972;-67
2023/03/17 01:30:51;;;;;;;;;;;10.40;80.10;;;;;;5069398;28;19932;-68
2023/03/17 01:33:19;;;;;;;;;;;10.40;80.00;;;;;;5069630;28;20058;-68
2023/03/17 01:35:46;;;;;;;;;;;10.40;80.00;;;;;;5075548;28;19981;-69
2023/03/17 01:38:13;;;;;;;;;;;10.70;80.20;;;;;;5068954;28;20307;-68
2023/03/17 01:40:43;;;;;;;;;;;10.50;79.70;;;;;;5068375;28;20082;-68
2023/03/17 01:43:17;;;;;;;;;;;10.60;79.60;;;;;;5069531;28;19931;-68
2023/03/17 01:46:02;;;;;;;;;;;10.60;79.60;;;;;;5067813;28;19931;-68
2023/03/17 01:48:30;;;;;;;;;;;10.60;79.30;;;;;;5073400;28;19925;-67
2023/03/17 01:50:57;;;;;;;;;;;10.60;79.60;;;;;;5067145;28;20398;-67
2023/03/17 01:53:24;;;;;;;;;;;10.60;79.20;;;;;;5070026;28;19924;-67
2023/03/17 01:55:51;;;;;;;;;;;10.70;79.40;;;;;;5068550;28;19976;-67
2023/03/17 01:58:23;;;;;;;;;;;10.60;79.20;;;;;;5067401;28;19924;-67
2023/03/17 02:00:49;;;;;;;;;;;10.50;79.30;;;;;;5066084;28;20383;-67
2023/03/17 02:03:16;;;;;;;;;;;10.60;79.40;;;;;;5070922;28;19928;-67
2023/03/17 02:05:45;;;;;;;;;;;10.60;79.30;;;;;;5076218;28;19924;-68
2023/03/17 02:08:13;;;;;;;;;;;10.60;79.40;;;;;;5071697;28;19982;-69
2023/03/17 02:10:40;;;;;;;;;;;10.60;79.50;;;;;;5066914;28;20532;-68
2023/03/17 02:13:08;;;;;;;;;;;10.60;80.00;;;;;;5071562;28;19924;-67
2023/03/17 02:15:39;;;;;;;;;;;10.50;80.10;;;;;;5066656;28;19931;-67
2023/03/17 02:18:06;;;;;;;;;;;10.50;80.20;;;;;;5062948;28;19978;-67
2023/03/17 02:20:51;;;;;;;;;;;10.40;80.80;;;;;;5067218;28;19924;-67
2023/03/17 02:23:21;;;;;;;;;;;10.40;81.00;;;;;;5070967;28;19982;-67
2023/03/17 02:25:48;;;;;;;;;;;10.40;81.60;;;;;;5070043;28;19931;-67
2023/03/17 02:28:16;;;;;;;;;;;10.30;81.80;;;;;;5067894;28;19924;-66
2023/03/17 02:30:43;;;;;;;;;;;10.30;82.20;;;;;;5068342;28;20019;-66
2023/03/17 02:33:10;;;;;;;;;;;10.20;82.50;;;;;;5069202;28;19928;-67
2023/03/17 02:35:37;;;;;;;;;;;10.20;82.80;;;;;;5074311;28;20008;-67
2023/03/17 02:38:04;;;;;;;;;;;10.10;83.10;;;;;;5070219;28;19925;-67
2023/03/17 02:40:32;;;;;;;;;;;10.00;83.40;;;;;;5063792;28;19924;-67
2023/03/17 02:42:59;;;;;;;;;;;10.00;83.70;;;;;;5066296;28;20272;-67
2023/03/17 02:45:26;;;;;;;;;;;9.90;85.70;;;;;;5076317;28;19924;-67
2023/03/17 02:47:53;;;;;;;;;;;9.90;86.20;;;;;;5070524;28;19924;-67
2023/03/17 02:50:22;;;;;;;;;;;9.90;86.40;;;;;;5066900;28;19925;-67
2023/03/17 02:52:48;;;;;;;;;;;9.90;86.80;;;;;;5067772;28;20394;-67
2023/03/17 02:55:15;;;;;;;;;;;9.90;87.30;;;;;;5066697;28;20283;-66
2023/03/17 02:57:43;;;;;;;;;;;9.80;87.50;;;;;;5070680;28;20418;-66
2023/03/17 03:00:11;;;;;;;;;;;9.80;87.80;;;;;;5065874;28;19931;-66
2023/03/17 03:02:37;;;;;;;;;;;9.80;88.20;;;;;;5075753;28;19960;-67
2023/03/17 03:05:04;;;;;;;;;;;9.80;89.00;;;;;;5068650;28;20023;-67
2023/03/17 03:07:31;;;;;;;;;;;9.70;89.30;;;;;;5061899;28;19930;-67
2023/03/17 03:09:58;;;;;;;;;;;9.80;89.90;;;;;;5065855;28;19932;-67
2023/03/17 03:12:25;;;;;;;;;;;9.80;90.10;;;;;;5066453;28;19933;-67
2023/03/17 03:14:53;;;;;;;;;;;9.80;90.30;;;;;;5067421;28;19947;-67
2023/03/17 03:17:20;;;;;;;;;;;9.80;90.50;;;;;;5067358;28;19930;-68
2023/03/17 03:19:47;;;;;;;;;;;9.80;90.70;;;;;;5066772;28;19928;-67
2023/03/17 03:22:14;;;;;;;;;;;9.80;90.90;;;;;;5068570;28;19970;-71
2023/03/17 03:24:41;;;;;;;;;;;9.80;91.00;;;;;;5066725;28;20020;-67
2023/03/17 03:27:08;;;;;;;;;;;9.80;91.20;;;;;;5068583;28;19925;-67
2023/03/17 03:29:35;;;;;;;;;;;9.80;91.40;;;;;;5065888;28;19943;-67
2023/03/17 03:32:03;;;;;;;;;;;9.80;91.80;;;;;;5069584;28;19925;-68
2023/03/17 03:34:29;;;;;;;;;;;9.80;92.10;;;;;;5069428;28;19932;-67
2023/03/17 03:36:56;;;;;;;;;;;9.80;92.50;;;;;;5069941;28;19924;-68
2023/03/17 03:39:23;;;;;;;;;;;9.80;92.70;;;;;;5066277;28;19935;-68
2023/03/17 03:41:49;;;;;;;;;;;9.80;92.90;;;;;;5075106;28;19924;-68
2023/03/17 03:44:16;;;;;;;;;;;9.80;93.20;;;;;;5071563;28;20011;-68
2023/03/17 03:46:43;;;;;;;;;;;9.80;93.30;;;;;;5070517;28;19931;-68
2023/03/17 03:49:11;;;;;;;;;;;9.90;93.40;;;;;;5056821;28;19931;-69
2023/03/17 03:51:37;;;;;;;;;;;9.90;93.60;;;;;;5071720;28;19933;-66
2023/03/17 03:54:04;;;;;;;;;;;9.90;93.80;;;;;;5077014;28;20285;-67
2023/03/17 03:56:31;;;;;;;;;;;9.80;94.00;;;;;;5079224;28;19948;-67
2023/03/17 03:58:58;;;;;;;;;;;9.90;94.30;;;;;;5071358;28;19929;-67
2023/03/17 04:01:24;;;;;;;;;;;9.80;94.60;;;;;;5073507;28;19924;-67
2023/03/17 04:03:51;;;;;;;;;;;9.80;94.80;;;;;;5069047;28;19930;-67
2023/03/17 04:06:19;;;;;;;;;;;9.90;94.80;;;;;;5068877;28;20007;-66
2023/03/17 04:08:46;;;;;;;;;;;9.90;94.90;;;;;;5070167;28;20048;-67
2023/03/17 04:11:12;;;;;;;;;;;9.90;95.00;;;;;;5072677;28;20023;-67
2023/03/17 04:13:39;;;;;;;;;;;9.90;95.10;;;;;;5084182;28;19924;-66
2023/03/17 04:16:06;;;;;;;;;;;9.90;95.20;;;;;;5072775;28;19936;-67
2023/03/17 04:18:33;;;;;;;;;;;9.80;95.30;;;;;;5074748;28;20323;-67
2023/03/17 04:20:59;;;;;;;;;;;9.90;95.60;;;;;;5074720;28;19928;-66
2023/03/17 04:23:30;;;;;;;;;;;9.90;96.40;;;;;;5069191;28;20042;-67
2023/03/17 04:25:57;;;;;;;;;;;10.00;95.90;;;;;;5068854;28;20006;-67
2023/03/17 04:28:23;;;;;;;;;;;9.90;96.40;;;;;;5074948;28;20556;-67
2023/03/17 04:30:50;;;;;;;;;;;9.90;96.80;;;;;;5070524;28;19968;-68
2023/03/17 04:33:19;;;;;;;;;;;9.90;97.10;;;;;;5078841;28;20007;-66
2023/03/17 04:35:45;;;;;;;;;;;9.90;97.00;;;;;;5076035;28;19924;-68
2023/03/17 04:38:12;;;;;;;;;;;9.90;97.10;;;;;;5073608;28;19924;-68
2023/03/17 04:40:41;;;;;;;;;;;9.90;97.20;;;;;;5072323;28;19931;-68
2023/03/17 04:43:09;;;;;;;;;;;9.90;97.20;;;;;;5066008;28;19936;-67
2023/03/17 04:45:36;;;;;;;;;;;9.90;97.10;;;;;;5064243;28;19931;-68
2023/03/17 04:48:03;;;;;;;;;;;9.90;97.30;;;;;;5069847;28;19931;-67
2023/03/17 04:50:31;;;;;;;;;;;9.90;97.60;;;;;;5069052;28;19935;-67
2023/03/17 04:52:58;;;;;;;;;;;9.90;97.80;;;;;;5081449;28;19931;-68
2023/03/17 04:55:24;;;;;;;;;;;9.90;98.10;;;;;;5070741;28;19971;-68
2023/03/17 04:57:52;;;;;;;;;;;9.80;98.30;;;;;;5071466;28;20346;-67
2023/03/17 05:00:20;;;;;;;;;;;9.80;98.60;;;;;;5067934;28;20019;-67
2023/03/17 05:02:46;;;;;;;;;;;9.80;98.90;;;;;;5082528;28;19925;-68
2023/03/17 05:05:13;;;;;;;;;;;9.70;99.10;;;;;;5066899;28;20380;-67
2023/03/17 05:07:40;;;;;;;;;;;9.70;99.30;;;;;;5073667;28;19950;-67
2023/03/17 05:10:08;;;;;;;;;;;9.70;99.80;;;;;;5070490;28;19980;-67
2023/03/17 05:12:34;;;;;;;;;;;9.70;99.90;;;;;;5076971;28;20018;-67
2023/03/17 05:15:04;;;;;;;;;;;9.70;99.90;;;;;;5068042;28;19931;-66
2023/03/17 05:17:30;;;;;;;;;;;9.60;99.90;;;;;;5068023;28;19924;-66
2023/03/17 05:19:57;;;;;;;;;;;9.60;99.90;;;;;;5064781;28;20012;-67
2023/03/17 05:22:24;;;;;;;;;;;9.50;99.90;;;;;;5066863;28;20015;-67
2023/03/17 05:24:50;;;;;;;;;;;9.50;99.90;;;;;;5073971;28;19932;-67
2023/03/17 05:27:17;;;;;;;;;;;9.40;99.90;;;;;;5067695;28;19963;-67
2023/03/17 05:29:44;;;;;;;;;;;9.50;99.90;;;;;;5072734;28;20035;-68
2023/03/17 05:32:12;;;;;;;;;;;9.50;99.90;;;;;;5074142;28;20467;-68
2023/03/17 05:34:39;;;;;;;;;;;9.40;99.90;;;;;;5068976;28;20374;-68
2023/03/17 05:37:06;;;;;;;;;;;9.30;99.90;;;;;;5075092;28;20024;-68
2023/03/17 05:39:33;;;;;;;;;;;9.30;99.90;;;;;;5067685;28;19928;-68
2023/03/17 05:42:00;;;;;;;;;;;9.30;99.90;;;;;;5063286;28;20337;-68
2023/03/17 05:44:27;;;;;;;;;;;9.30;99.90;;;;;;5068704;28;19935;-68
2023/03/17 05:46:54;;;;;;;;;;;9.30;99.90;;;;;;5069873;28;19950;-68
2023/03/17 05:49:23;;;;;;;;;;;9.30;99.90;;;;;;5069644;28;20350;-68
2023/03/17 05:51:50;;;;;;;;;;;9.20;99.90;;;;;;5066670;28;19929;-68
2023/03/17 05:54:16;;;;;;;;;;;9.30;99.90;;;;;;5066825;28;19929;-69
2023/03/17 05:56:43;;;;;;;;;;;9.30;99.90;;;;;;5082049;28;20371;-68
2023/03/17 05:59:13;;;;;;;;;;;9.30;99.90;;;;;;5074990;28;19933;-69
2023/03/17 06:01:40;;;;;;;;;;;9.40;99.90;;;;;;5080307;28;19924;-68
2023/03/17 06:04:07;;;;;;;;;;;9.40;99.90;;;;;;5067146;28;19999;-69
2023/03/17 06:06:35;;;;;;;;;;;9.30;99.90;;;;;;5055480;28;20588;-68
2023/03/17 06:09:02;;;;;;;;;;;9.40;99.90;;;;;;5063324;28;20503;-69
2023/03/17 06:11:30;;;;;;;;;;;9.40;99.90;;;;;;5056961;28;20019;-68
2023/03/17 06:13:56;;;;;;;;;;;9.40;99.90;;;;;;5063093;28;20139;-67
2023/03/17 06:16:23;;;;;;;;;;;9.50;99.90;;;;;;5067323;28;20356;-67
2023/03/17 06:18:50;;;;;;;;;;;9.50;99.90;;;;;;5059921;28;19939;-67
2023/03/17 06:21:17;;;;;;;;;;;9.40;99.90;;;;;;5066677;28;19925;-67
2023/03/17 06:23:45;;;;;;;;;;;9.40;99.90;;;;;;5063383;28;19925;-67
2023/03/17 06:26:11;;;;;;;;;;;9.40;99.90;;;;;;5063977;28;20295;-67
2023/03/17 06:28:38;;;;;;;;;;;9.50;99.90;;;;;;5066434;28;20019;-66
2023/03/17 06:31:05;;;;;;;;;;;9.50;99.90;;;;;;5065205;28;20015;-66
2023/03/17 06:33:33;;;;;;;;;;;9.50;99.90;;;;;;5067933;28;19931;-66
2023/03/17 06:36:00;;;;;;;;;;;9.50;99.90;;;;;;5070119;28;19932;-67
2023/03/17 06:38:27;;;;;;;;;;;9.50;99.90;;;;;;5057486;28;19955;-68
2023/03/17 06:40:55;;;;;;;;;;;9.60;99.90;;;;;;5064644;28;20881;-68
2023/03/17 06:43:23;;;;;;;;;;;9.70;99.90;;;;;;5060661;28;19954;-67
2023/03/17 06:45:50;;;;;;;;;;;9.70;99.90;;;;;;5061852;28;20576;-68
2023/03/17 06:48:17;;;;;;;;;;;9.90;99.90;;;;;;5059650;28;19968;-67
2023/03/17 06:50:43;;;;;;;;;;;9.90;99.90;;;;;;5065897;28;19975;-67
2023/03/17 06:53:10;;;;;;;;;;;10.00;99.90;;;;;;5065650;28;19928;-68
2023/03/17 06:55:37;;;;;;;;;;;10.10;99.90;;;;;;5069696;28;19999;-67
2023/03/17 06:58:05;;;;;;;;;;;10.20;99.90;;;;;;5072529;28;19967;-66
2023/03/17 07:00:32;;;;;;;;;;;10.30;99.90;;;;;;5067978;28;19975;-68
2023/03/17 07:02:59;;;;;;;;;;;10.40;99.90;;;;;;5068537;28;20011;-67
2023/03/17 07:05:26;;;;;;;;;;;10.50;99.90;;;;;;5071201;28;19924;-67
2023/03/17 07:07:53;;;;;;;;;;;10.60;99.90;;;;;;5067317;28;19925;-65
2023/03/17 07:10:21;;;;;;;;;;;10.70;99.90;;;;;;5060348;28;20008;-67
2023/03/17 07:12:48;;;;;;;;;;;10.80;99.90;;;;;;5061316;28;19939;-66
2023/03/17 07:15:17;;;;;;;;;;;10.90;99.90;;;;;;5064682;28;19930;-65
2023/03/17 07:17:45;;;;;;;;;;;11.00;99.90;;;;;;5053819;28;19928;-67
2023/03/17 07:20:12;;;;;;;;;;;11.20;99.90;;;;;;5072501;28;19929;-66
2023/03/17 07:22:39;;;;;;;;;;;11.30;99.90;;;;;;5054206;28;20390;-66
2023/03/17 07:25:09;;;;;;;;;;;11.40;99.90;;;;;;5065148;28;20752;-65
2023/03/17 07:27:36;;;;;;;;;;;11.60;99.90;;;;;;5060850;28;20750;-64
2023/03/17 07:30:03;;;;;;;;;;;11.60;99.90;;;;;;5064437;28;20019;-66
2023/03/17 07:32:32;;;;;;;;;;;11.50;99.90;;;;;;5071391;28;20302;-66
2023/03/17 07:34:58;;;;;;;;;;;11.60;99.90;;;;;;5057092;28;20331;-66
2023/03/17 07:37:25;;;;;;;;;;;11.60;99.90;;;;;;5064149;28;20011;-67
2023/03/17 07:39:52;;;;;;;;;;;11.70;99.90;;;;;;5077647;28;19932;-66
2023/03/17 07:42:18;;;;;;;;;;;11.90;99.90;;;;;;5064874;28;19932;-67
2023/03/17 07:44:45;;;;;;;;;;;12.00;99.90;;;;;;5067704;28;20011;-65
2023/03/17 07:47:12;;;;;;;;;;;12.10;99.90;;;;;;5067300;28;20016;-66
2023/03/17 07:49:40;;;;;;;;;;;12.30;99.90;;;;;;5071791;28;20437;-66
2023/03/17 07:52:07;;;;;;;;;;;12.40;99.90;;;;;;5063100;28;20055;-65
2023/03/17 07:54:34;;;;;;;;;;;12.70;99.50;;;;;;5058795;28;20015;-65
2023/03/17 07:57:01;;;;;;;;;;;12.70;99.10;;;;;;5067349;28;19929;-66
2023/03/17 07:59:27;;;;;;;;;;;12.70;99.00;;;;;;5062124;28;20058;-67
2023/03/17 08:01:56;;;;;;;;;;;12.70;99.40;;;;;;5072196;28;20019;-65
2023/03/17 08:04:23;;;;;;;;;;;12.70;99.20;;;;;;5068923;28;19943;-66
2023/03/17 08:06:51;;;;;;;;;;;12.60;99.30;;;;;;5069726;28;19928;-66
2023/03/17 08:09:18;;;;;;;;;;;12.60;99.40;;;;;;5081779;28;19971;-66
2023/03/17 08:11:45;;;;;;;;;;;12.60;99.70;;;;;;5068796;28;19924;-66
2023/03/17 08:14:12;;;;;;;;;;;12.80;99.60;;;;;;5068218;28;19932;-66
2023/03/17 08:16:38;;;;;;;;;;;12.90;99.40;;;;;;5070351;28;20011;-67
2023/03/17 08:19:06;;;;;;;;;;;12.90;99.00;;;;;;5060912;28;19931;-66
2023/03/17 08:21:33;;;;;;;;;;;12.90;99.20;;;;;;5068374;28;20012;-66
2023/03/17 08:24:03;;;;;;;;;;;13.00;99.30;;;;;;5069706;28;20023;-66
2023/03/17 08:26:30;;;;;;;;;;;13.10;99.60;;;;;;5077609;28;19931;-66
2023/03/17 08:28:56;;;;;;;;;;;13.10;99.60;;;;;;5070837;28;20426;-65
2023/03/17 08:31:23;;;;;;;;;;;13.00;99.90;;;;;;5070817;28;20020;-65
2023/03/17 08:33:53;;;;;;;;;;;13.10;99.90;;;;;;5074924;28;20015;-65
2023/03/17 08:36:20;;;;;;;;;;;13.00;99.90;;;;;;5065772;28;19931;-65
2023/03/17 08:38:47;;;;;;;;;;;12.90;99.90;;;;;;5068261;28;20018;-64
2023/03/17 08:41:17;;;;;;;;;;;13.00;99.90;;;;;;5056607;28;20007;-65
2023/03/17 08:43:44;;;;;;;;;;;13.00;99.90;;;;;;5067535;28;19931;-65
2023/03/17 08:46:13;;;;;;;;;;;13.10;99.90;;;;;;5062961;28;19924;-66
2023/03/17 08:48:40;;;;;;;;;;;13.40;99.90;;;;;;5065732;28;19931;-65
2023/03/17 08:51:07;;;;;;;;;;;13.80;99.90;;;;;;5079676;28;19924;-65
2023/03/17 08:53:34;;;;;;;;;;;13.90;99.90;;;;;;5066990;28;19935;-65
2023/03/17 08:56:01;;;;;;;;;;;13.90;99.90;;;;;;5069727;28;19924;-66
2023/03/17 08:58:29;;;;;;;;;;;13.90;99.90;;;;;;5061273;28;19933;-65
2023/03/17 09:00:59;;;;;;;;;;;13.80;99.90;;;;;;5069794;28;20031;-66
2023/03/17 09:03:26;;;;;;;;;;;13.80;99.90;;;;;;5058781;28;19924;-65
2023/03/17 09:05:53;;;;;;;;;;;13.80;99.90;;;;;;5061387;28;19936;-66
2023/03/17 09:08:20;;;;;;;;;;;14.00;99.90;;;;;;5061752;28;19932;-65
2023/03/17 09:10:47;;;;;;;;;;;14.00;99.90;;;;;;5068514;28;20031;-66
2023/03/17 09:13:13;;;;;;;;;;;14.10;99.90;;;;;;5068107;28;19931;-66
2023/03/17 09:15:41;;;;;;;;;;;14.20;99.90;;;;;;5069362;28;20007;-67
2023/03/17 09:18:09;;;;;;;;;;;14.20;99.90;;;;;;5071317;28;19931;-65
2023/03/17 09:20:36;;;;;;;;;;;14.10;99.90;;;;;;5065115;28;19939;-65
2023/03/17 09:23:03;;;;;;;;;;;;;;;;;;5065437;28;19971;-65
2023/03/17 09:25:29;;;;;;;;;;;13.70;99.90;;;;;;5069981;28;19924;-66
2023/03/17 09:27:57;;;;;;;;;;;13.50;99.90;;;;;;5067577;28;20023;-66
2023/03/17 09:30:25;;;;;;;;;;;13.80;99.90;;;;;;5062795;28;19925;-66
2023/03/17 09:32:53;;;;;;;;;;;13.70;99.90;;;;;;5063110;28;19925;-66
2023/03/17 09:35:21;;;;;;;;;;;13.40;99.90;;;;;;5063522;28;19931;-65
2023/03/17 09:37:47;;;;;;;;;;;13.60;99.90;;;;;;5066810;28;19924;-65
2023/03/17 09:40:16;;;;;;;;;;;13.50;99.90;;;;;;5067631;28;19925;-65
2023/03/17 09:42:49;;;;;;;;;;;13.40;99.90;;;;;;5068189;28;19990;-66
2023/03/17 09:45:23;;;;;;;;;;;13.40;99.90;;;;;;5067925;28;19924;-65
2023/03/17 09:47:52;;;;;;;;;;;13.40;99.90;;;;;;5065277;28;20413;-66
2023/03/17 09:50:24;;;;;;;;;;;13.30;99.90;;;;;;5064921;28;20442;-66
2023/03/17 09:52:51;;;;;;;;;;;13.40;99.90;;;;;;5061530;28;19932;-66
2023/03/17 09:55:22;;;;;;;;;;;13.60;99.90;;;;;;5061151;28;19928;-65
2023/03/17 09:57:51;;;;;;;;;;;13.90;99.90;;;;;;5062145;28;20027;-65
2023/03/17 10:00:19;;;;;;;;;;;14.30;99.90;;;;;;5067230;28;19924;-65
2023/03/17 10:02:46;;;;;;;;;;;14.90;99.90;;;;;;5068380;28;19924;-65
2023/03/17 10:05:19;;;;;;;;;;;15.50;99.90;;;;;;5068008;28;19924;-64
2023/03/17 10:07:51;;;;;;;;;;;15.60;99.90;;;;;;5063230;28;19925;-65
2023/03/17 10:10:17;;;;;;;;;;;;;;;;;;5059900;28;19931;-66
2023/03/17 10:12:44;;;;;;;;;;;;;;;;;;5068833;28;19935;-66
2023/03/17 10:15:15;;;;;;;;;;;16.90;98.60;;;;;;5061732;28;19928;-66
2023/03/17 10:17:42;;;;;;;;;;;16.50;61.20;;;;;;5067269;28;20786;-66
2023/03/17 10:20:12;;;;;;;;;;;16.30;60.80;;;;;;5067636;28;20007;-66
2023/03/17 10:22:41;;;;;;;;;;;16.20;62.70;;;;;;5068424;28;19924;-66
2023/03/17 10:25:14;;;;;;;;;;;16.10;60.00;;;;;;5068855;28;19925;-66
2023/03/17 10:27:42;;;;;;;;;;;16.20;62.20;;;;;;5062467;28;19936;-66
2023/03/17 10:30:13;;;;;;;;;;;16.20;62.90;;;;;;5065609;28;19925;-66
2023/03/17 10:32:40;;;;;;;;;;;16.40;62.90;;;;;;5066089;28;20306;-66
2023/03/17 10:35:08;;;;;;;;;;;16.40;60.40;;;;;;5066414;28;19924;-66
2023/03/17 10:37:36;;;;;;;;;;;16.30;61.10;;;;;;5062551;28;19929;-66
2023/03/17 10:40:04;;;;;;;;;;;16.30;61.00;;;;;;5064736;28;20992;-67
2023/03/17 10:42:32;;;;;;;;;;;16.30;62.20;;;;;;5053376;28;20504;-59
2023/03/17 10:45:02;;;;;;;;;;;16.30;62.50;;;;;;5065716;28;19928;-67
2023/03/17 10:47:32;;;;;;;;;;;16.40;64.10;;;;;;5064843;28;19964;-67
2023/03/17 10:50:02;;;;;;;;;;;16.40;61.80;;;;;;5065129;28;20451;-67
2023/03/17 10:52:31;;;;;;;;;;;16.40;63.10;;;;;;5067151;28;19960;-67
2023/03/17 10:55:01;;;;;;;;;;;16.70;63.60;;;;;;5063419;28;20350;-67
2023/03/17 10:57:28;;;;;;;;;;;16.80;62.60;;;;;;5070649;28;19925;-67
2023/03/17 10:59:57;;;;;;;;;;;16.90;62.00;;;;;;5068239;28;20367;-67
2023/03/17 11:02:25;;;;;;;;;;;16.90;61.80;;;;;;5064784;28;19928;-67
2023/03/17 11:04:54;;;;;;;;;;;16.90;59.90;;;;;;5071486;28;19989;-67
2023/03/17 11:07:26;;;;;;;;;;;17.00;60.70;;;;;;5067540;28;19924;-67
2023/03/17 11:09:57;;;;;;;;;;;17.00;60.60;;;;;;5069090;28;19936;-66
2023/03/17 11:12:25;;;;;;;;;;;17.20;60.80;;;;;;5065812;28;19932;-68
2023/03/17 11:14:56;;;;;;;;;;;17.20;60.10;;;;;;5072673;28;20376;-67
2023/03/17 11:17:30;;;;;;;;;;;17.10;59.20;;;;;;5067851;28;20023;-65
2023/03/17 11:20:04;;;;;;;;;;;17.10;61.20;;;;;;5071079;28;19925;-66
2023/03/17 11:22:34;;;;;;;;;;;17.20;62.00;;;;;;5068614;28;20353;-67
2023/03/17 11:25:05;;;;;;;;;;;17.10;60.20;;;;;;5076145;28;19970;-67
2023/03/17 11:27:33;;;;;;;;;;;17.20;61.70;;;;;;5062538;28;19939;-66
2023/03/17 11:30:17;;;;;;;;;;;17.30;62.30;;;;;;5069118;28;19931;-66
2023/03/17 11:32:50;;;;;;;;;;;17.30;60.00;;;;;;5072881;28;19925;-67
2023/03/17 11:35:27;;;;;;;;;;;17.20;61.70;;;;;;5058362;28;19925;-67
2023/03/17 11:37:59;;;;;;;;;;;17.30;61.20;;;;;;5063952;28;20015;-66
2023/03/17 11:40:30;;;;;;;;;;;17.40;63.00;;;;;;5068371;28;19931;-66
2023/03/17 11:43:03;;;;;;;;;;;17.70;61.60;;;;;;5073112;28;19955;-67
2023/03/17 11:45:33;;;;;;;;;;;17.80;60.60;;;;;;5071471;28;20240;-66
2023/03/17 11:48:06;;;;;;;;;;;17.70;61.20;;;;;;5070173;28;19925;-66
2023/03/17 11:50:36;;;;;;;;;;;17.80;61.90;;;;;;5067339;28;19947;-66
2023/03/17 11:53:09;;;;;;;;;;;17.90;61.00;;;;;;5069296;28;19958;-65
2023/03/17 11:55:38;;;;;;;;;;;18.00;61.20;;;;;;5067613;28;20054;-67
2023/03/17 11:58:09;;;;;;;;;;;18.10;61.80;;;;;;5069469;28;20031;-67
2023/03/17 12:00:36;;;;;;;;;;;18.10;62.60;;;;;;5065367;28;19932;-67
2023/03/17 12:03:13;;;;;;;;;;;18.00;63.00;;;;;;5066250;28;19929;-66
2023/03/17 12:05:41;;;;;;;;;;;17.80;63.40;;;;;;5057845;28;19938;-66
2023/03/17 12:08:11;;;;;;;;;;;17.90;65.40;;;;;;5068354;28;20383;-67
2023/03/17 12:10:41;;;;;;;;;;;18.20;64.90;;;;;;5062342;28;20307;-68
2023/03/17 12:13:12;;;;;;;;;;;18.40;64.70;;;;;;5065023;28;19946;-67
2023/03/17 12:15:42;;;;;;;;;;;18.30;64.10;;;;;;5064771;28;19999;-67
2023/03/17 12:18:13;;;;;;;;;;;18.30;64.50;;;;;;5069168;28;20379;-66
2023/03/17 12:20:45;;;;;;;;;;;18.20;65.10;;;;;;5062931;28;19931;-67
2023/03/17 12:23:16;;;;;;;;;;;18.20;64.40;;;;;;5065442;28;19967;-67
2023/03/17 12:25:49;;;;;;;;;;;18.10;63.00;;;;;;5069817;28;20300;-67
2023/03/17 12:28:17;;;;;;;;;;;18.10;64.10;;;;;;5066418;28;19932;-66
2023/03/17 12:30:48;;;;;;;;;;;18.20;64.90;;;;;;5070101;28;20359;-66
2023/03/17 12:33:22;;;;;;;;;;;18.30;65.40;;;;;;5060477;28;19960;-67
2023/03/17 12:35:49;;;;;;;;;;;18.30;64.70;;;;;;5063377;28;19924;-67
2023/03/17 12:38:18;;;;;;;;;;;18.40;64.50;;;;;;5063036;28;20027;-66
2023/03/17 12:40:53;;;;;;;;;;;18.50;62.30;;;;;;5069112;28;19931;-67
2023/03/17 12:43:34;;;;;;;;;;;18.80;63.10;;;;;;5067773;28;20012;-66
2023/03/17 12:46:07;;;;;;;;;;;19.10;60.10;;;;;;5069319;28;19931;-66
2023/03/17 12:48:44;;;;;;;;;;;19.00;58.70;;;;;;5065135;28;19935;-66
2023/03/17 12:51:32;;;;;;;;;;;19.00;59.00;;;;;;5063851;28;19939;-66
2023/03/17 12:53:59;;;;;;;;;;;18.90;59.30;;;;;;5059715;28;19930;-66
2023/03/17 12:56:27;;;;;;;;;;;18.90;58.40;;;;;;5070338;28;19994;-65
2023/03/17 12:58:54;;;;;;;;;;;19.00;58.70;;;;;;5068453;28;19928;-65
2023/03/17 13:01:25;;;;;;;;;;;19.10;58.10;;;;;;5066492;28;20029;-66
2023/03/17 13:04:03;;;;;;;;;;;19.20;59.60;;;;;;5066129;28;19973;-66
2023/03/17 13:06:31;;;;;;;;;;;19.20;57.70;;;;;;5059688;28;20035;-67
2023/03/17 13:09:17;;;;;;;;;;;19.10;57.50;;;;;;5068922;28;19936;-66
2023/03/17 13:11:47;;;;;;;;;;;19.20;57.60;;;;;;5071485;28;20496;-65
2023/03/17 13:14:16;;;;;;;;;;;19.40;57.30;;;;;;5058971;28;19925;-66
2023/03/17 13:16:45;;;;;;;;;;;19.30;55.80;;;;;;5063604;28;19937;-67
2023/03/17 13:19:18;;;;;;;;;;;19.30;55.30;;;;;;5069401;28;19924;-66
2023/03/17 13:21:48;;;;;;;;;;;19.50;55.10;;;;;;5066484;28;20447;-67
2023/03/17 13:24:19;;;;;;;;;;;19.60;54.80;;;;;;5066044;28;19975;-67
2023/03/17 13:26:50;;;;;;;;;;;19.80;54.60;;;;;;5060446;28;20289;-66
2023/03/17 13:29:24;;;;;;;;;;;19.80;54.60;;;;;;5055256;28;19972;-66
2023/03/17 13:31:51;;;;;;;;;;;19.60;53.70;;;;;;5059566;28;19933;-66
2023/03/17 13:34:20;;;;;;;;;;;19.50;53.90;;;;;;5064826;28;20318;-67
2023/03/17 13:36:57;;;;;;;;;;;19.60;53.60;;;;;;5062147;28;20456;-67
2023/03/17 13:39:39;;;;;;;;;;;19.60;53.60;;;;;;5064620;28;20474;-66
2023/03/17 13:42:20;;;;;;;;;;;19.40;52.90;;;;;;5057644;28;20406;-67
2023/03/17 13:44:56;;;;;;;;;;;19.40;54.40;;;;;;5064001;28;19972;-66
2023/03/17 13:47:28;;;;;;;;;;;19.30;52.60;;;;;;5058243;28;19924;-66
2023/03/17 13:50:00;;;;;;;;;;;19.40;52.60;;;;;;5058372;28;19928;-66
2023/03/17 13:52:30;;;;;;;;;;;19.50;53.10;;;;;;5058569;28;19932;-67
2023/03/17 13:55:04;;;;;;;;;;;19.30;53.20;;;;;;5061920;28;19928;-68
2023/03/17 13:57:35;;;;;;;;;;;19.40;53.90;;;;;;5061680;28;20035;-67
2023/03/17 14:00:05;;;;;;;;;;;19.50;54.10;;;;;;5062971;28;19931;-68
2023/03/17 14:02:33;;;;;;;;;;;19.70;54.30;;;;;;5054636;28;19925;-66
2023/03/17 14:05:04;;;;;;;;;;;19.70;53.80;;;;;;5061874;28;19971;-68
2023/03/17 14:07:37;;;;;;;;;;;19.60;53.50;;;;;;5057099;28;20395;-67
2023/03/17 14:10:05;;;;;;;;;;;19.70;54.50;;;;;;5059441;28;20035;-67
2023/03/17 14:12:36;;;;;;;;;;;19.80;54.00;;;;;;5063496;28;19982;-68
2023/03/17 14:15:06;;;;;;;;;;;19.70;52.90;;;;;;5059079;28;20197;-67
2023/03/17 14:17:35;;;;;;;;;;;19.60;51.50;;;;;;5059725;28;19935;-66
2023/03/17 14:20:07;;;;;;;;;;;19.60;51.80;;;;;;5062824;28;20011;-67
2023/03/17 14:22:39;;;;;;;;;;;19.50;52.30;;;;;;5055799;28;19929;-67
2023/03/17 14:25:07;;;;;;;;;;;19.40;52.10;;;;;;5069477;28;20425;-65
2023/03/17 14:27:36;;;;;;;;;;;19.40;52.80;;;;;;5061018;28;19929;-66
2023/03/17 14:30:07;;;;;;;;;;;19.20;52.70;;;;;;5061586;28;19932;-66